Sevier River near Sigurd




Date Battery Voltage (V) Panel Temperature (degC) River Stage (ft) River Discharge (cfs)
09/01/2018 13.32 22.95 1.84 106
09/02/2018 13.31 21.75 1.97 124
09/03/2018 13.30 20.68 1.95 121
09/04/2018 13.27 19.52 1.82 102
09/05/2018 13.25 19.94 1.76 95
09/06/2018 13.25 21.88 1.71 88
09/07/2018 13.26 22.97 1.68 85
09/08/2018 13.27 23.60 1.64 80
09/09/2018 13.30 24.34 1.57 73
09/10/2018 13.26 23.43 1.43 59
09/11/2018 13.28 24.88 1.29 45
09/12/2018 13.29 23.40 1.14 35
09/13/2018 13.31 21.84 0.92 21
09/14/2018 13.30 21.58 0.90 20
09/15/2018 13.28 21.55 0.92 21
09/16/2018 13.27 21.93 0.95 23
09/17/2018 13.26 23.30 1.05 28
09/18/2018 13.28 22.59 1.09 31
09/19/2018 13.30 20.62 1.20 39
09/20/2018 13.34 17.99 1.34 50
09/21/2018 13.31 16.43 1.36 52
09/22/2018 13.28 19.62 1.40 55
09/23/2018 13.29 20.47 1.49 64
09/24/2018 13.32 21.76 1.26 45
09/25/2018 13.36 15.87 0.87 19
09/26/2018 13.35 14.68 0.72 12
09/27/2018 13.32 15.45 0.65 10
09/28/2018 13.27 17.45 0.60 8
09/29/2018 13.27 21.70 0.57 7
09/30/2018 13.28 22.70 0.55 7
Average 51
Maximum 124
Minimum 7
Total Volume (AF) 3,024